sensor_id;sensor_type;location;lat;lon;timestamp;temperature;humidity
13721;DHT22;6932;51.438;5.470;2023-04-25T00:01:46;15.00;75.90
13721;DHT22;6932;51.438;5.470;2023-04-25T00:04:12;15.00;76.50
13721;DHT22;6932;51.438;5.470;2023-04-25T00:06:38;15.00;75.80
13721;DHT22;6932;51.438;5.470;2023-04-25T00:09:05;15.00;75.90
13721;DHT22;6932;51.438;5.470;2023-04-25T00:11:36;15.00;76.00
13721;DHT22;6932;51.438;5.470;2023-04-25T00:14:02;15.00;76.00
13721;DHT22;6932;51.438;5.470;2023-04-25T00:16:29;15.00;76.00
13721;DHT22;6932;51.438;5.470;2023-04-25T00:18:58;15.00;76.10
13721;DHT22;6932;51.438;5.470;2023-04-25T00:21:25;15.00;76.10
13721;DHT22;6932;51.438;5.470;2023-04-25T00:23:52;15.00;76.10
13721;DHT22;6932;51.438;5.470;2023-04-25T00:26:18;15.00;76.80
13721;DHT22;6932;51.438;5.470;2023-04-25T00:28:46;15.00;76.10
13721;DHT22;6932;51.438;5.470;2023-04-25T00:31:13;15.00;76.10
13721;DHT22;6932;51.438;5.470;2023-04-25T00:33:39;15.00;76.10
13721;DHT22;6932;51.438;5.470;2023-04-25T00:36:05;15.00;76.10
13721;DHT22;6932;51.438;5.470;2023-04-25T00:38:32;15.00;76.10
13721;DHT22;6932;51.438;5.470;2023-04-25T00:40:58;15.00;76.10
13721;DHT22;6932;51.438;5.470;2023-04-25T00:43:26;14.90;76.00
13721;DHT22;6932;51.438;5.470;2023-04-25T00:45:52;15.00;76.10
13721;DHT22;6932;51.438;5.470;2023-04-25T00:48:20;14.90;76.10
13721;DHT22;6932;51.438;5.470;2023-04-25T00:50:54;14.90;76.10
13721;DHT22;6932;51.438;5.470;2023-04-25T00:53:24;14.90;76.10
13721;DHT22;6932;51.438;5.470;2023-04-25T00:55:52;14.90;76.20
13721;DHT22;6932;51.438;5.470;2023-04-25T00:58:19;14.90;76.20
13721;DHT22;6932;51.438;5.470;2023-04-25T01:00:47;14.80;76.20
13721;DHT22;6932;51.438;5.470;2023-04-25T01:03:16;14.80;76.30
13721;DHT22;6932;51.438;5.470;2023-04-25T01:05:44;14.80;76.40
13721;DHT22;6932;51.438;5.470;2023-04-25T01:08:12;14.80;76.40
13721;DHT22;6932;51.438;5.470;2023-04-25T01:10:38;14.80;76.50
13721;DHT22;6932;51.438;5.470;2023-04-25T01:16:45;14.70;76.60
13721;DHT22;6932;51.438;5.470;2023-04-25T01:19:11;14.70;76.50
13721;DHT22;6932;51.438;5.470;2023-04-25T01:21:37;14.70;76.60
13721;DHT22;6932;51.438;5.470;2023-04-25T01:24:03;14.70;76.60
13721;DHT22;6932;51.438;5.470;2023-04-25T01:26:30;14.70;76.70
13721;DHT22;6932;51.438;5.470;2023-04-25T01:28:57;14.70;76.70
13721;DHT22;6932;51.438;5.470;2023-04-25T01:31:23;14.70;76.70
13721;DHT22;6932;51.438;5.470;2023-04-25T01:33:49;14.60;76.70
13721;DHT22;6932;51.438;5.470;2023-04-25T01:36:15;14.60;76.60
13721;DHT22;6932;51.438;5.470;2023-04-25T01:38:41;14.60;76.60
13721;DHT22;6932;51.438;5.470;2023-04-25T01:41:09;14.60;76.60
13721;DHT22;6932;51.438;5.470;2023-04-25T01:43:35;14.60;76.60
13721;DHT22;6932;51.438;5.470;2023-04-25T01:46:01;14.60;76.70
13721;DHT22;6932;51.438;5.470;2023-04-25T01:48:27;14.50;76.70
13721;DHT22;6932;51.438;5.470;2023-04-25T01:50:52;14.50;76.70
13721;DHT22;6932;51.438;5.470;2023-04-25T01:53:18;14.50;76.80
13721;DHT22;6932;51.438;5.470;2023-04-25T01:55:44;14.60;76.90
13721;DHT22;6932;51.438;5.470;2023-04-25T01:58:10;14.50;76.90
13721;DHT22;6932;51.438;5.470;2023-04-25T02:00:38;14.50;77.00
13721;DHT22;6932;51.438;5.470;2023-04-25T02:03:06;14.50;77.00
13721;DHT22;6932;51.438;5.470;2023-04-25T02:05:37;14.50;77.00
13721;DHT22;6932;51.438;5.470;2023-04-25T02:08:05;14.50;77.10
13721;DHT22;6932;51.438;5.470;2023-04-25T02:10:33;14.50;77.10
13721;DHT22;6932;51.438;5.470;2023-04-25T02:13:00;14.40;77.00
13721;DHT22;6932;51.438;5.470;2023-04-25T02:15:26;14.40;77.00
13721;DHT22;6932;51.438;5.470;2023-04-25T02:17:52;14.40;77.20
13721;DHT22;6932;51.438;5.470;2023-04-25T02:23:59;14.40;77.30
13721;DHT22;6932;51.438;5.470;2023-04-25T02:26:25;14.40;77.20
13721;DHT22;6932;51.438;5.470;2023-04-25T02:28:52;14.30;77.20
13721;DHT22;6932;51.438;5.470;2023-04-25T02:31:17;14.30;77.30
13721;DHT22;6932;51.438;5.470;2023-04-25T02:33:43;14.30;77.40
13721;DHT22;6932;51.438;5.470;2023-04-25T02:36:09;14.30;77.40
13721;DHT22;6932;51.438;5.470;2023-04-25T02:38:35;14.30;77.40
13721;DHT22;6932;51.438;5.470;2023-04-25T02:41:01;14.40;77.50
13721;DHT22;6932;51.438;5.470;2023-04-25T02:43:27;14.40;77.50
13721;DHT22;6932;51.438;5.470;2023-04-25T02:45:53;14.40;77.50
13721;DHT22;6932;51.438;5.470;2023-04-25T02:48:18;14.40;77.40
13721;DHT22;6932;51.438;5.470;2023-04-25T02:50:44;14.40;77.40
13721;DHT22;6932;51.438;5.470;2023-04-25T02:53:10;14.40;77.40
13721;DHT22;6932;51.438;5.470;2023-04-25T02:55:36;14.40;77.40
13721;DHT22;6932;51.438;5.470;2023-04-25T02:58:02;14.40;77.40
13721;DHT22;6932;51.438;5.470;2023-04-25T03:00:28;14.40;77.30
13721;DHT22;6932;51.438;5.470;2023-04-25T03:02:54;14.30;77.20
13721;DHT22;6932;51.438;5.470;2023-04-25T03:05:20;14.30;77.20
13721;DHT22;6932;51.438;5.470;2023-04-25T03:07:46;14.40;77.30
13721;DHT22;6932;51.438;5.470;2023-04-25T03:10:12;14.30;77.20
13721;DHT22;6932;51.438;5.470;2023-04-25T03:12:38;14.30;77.20
13721;DHT22;6932;51.438;5.470;2023-04-25T03:15:04;14.30;77.80
13721;DHT22;6932;51.438;5.470;2023-04-25T03:17:30;14.30;77.20
13721;DHT22;6932;51.438;5.470;2023-04-25T03:19:57;14.30;77.30
13721;DHT22;6932;51.438;5.470;2023-04-25T03:22:23;14.30;77.30
13721;DHT22;6932;51.438;5.470;2023-04-25T03:24:50;14.30;77.30
13721;DHT22;6932;51.438;5.470;2023-04-25T03:27:16;14.30;77.30
13721;DHT22;6932;51.438;5.470;2023-04-25T03:29:42;14.30;77.30
13721;DHT22;6932;51.438;5.470;2023-04-25T03:32:08;14.30;77.30
13721;DHT22;6932;51.438;5.470;2023-04-25T03:34:33;14.30;77.30
13721;DHT22;6932;51.438;5.470;2023-04-25T03:36:59;14.30;78.00
13721;DHT22;6932;51.438;5.470;2023-04-25T03:39:25;14.20;77.40
13721;DHT22;6932;51.438;5.470;2023-04-25T03:41:51;14.20;77.40
13721;DHT22;6932;51.438;5.470;2023-04-25T03:44:17;14.20;77.40
13721;DHT22;6932;51.438;5.470;2023-04-25T03:46:43;14.20;77.40
13721;DHT22;6932;51.438;5.470;2023-04-25T03:49:09;14.20;78.10
13721;DHT22;6932;51.438;5.470;2023-04-25T03:51:34;14.20;77.40
13721;DHT22;6932;51.438;5.470;2023-04-25T03:54:00;14.20;77.40
13721;DHT22;6932;51.438;5.470;2023-04-25T03:56:26;14.20;77.50
13721;DHT22;6932;51.438;5.470;2023-04-25T03:58:52;14.20;77.50
13721;DHT22;6932;51.438;5.470;2023-04-25T04:01:18;14.20;77.50
13721;DHT22;6932;51.438;5.470;2023-04-25T04:03:43;14.20;77.40
13721;DHT22;6932;51.438;5.470;2023-04-25T04:06:10;14.20;77.50
13721;DHT22;6932;51.438;5.470;2023-04-25T04:08:36;14.20;77.50
13721;DHT22;6932;51.438;5.470;2023-04-25T04:11:02;14.20;77.50
13721;DHT22;6932;51.438;5.470;2023-04-25T04:13:28;14.20;77.60
13721;DHT22;6932;51.438;5.470;2023-04-25T04:15:55;14.20;77.60
13721;DHT22;6932;51.438;5.470;2023-04-25T04:18:21;14.20;77.60
13721;DHT22;6932;51.438;5.470;2023-04-25T04:20:47;14.20;77.60
13721;DHT22;6932;51.438;5.470;2023-04-25T04:23:13;14.20;77.70
13721;DHT22;6932;51.438;5.470;2023-04-25T04:25:39;14.20;77.70
13721;DHT22;6932;51.438;5.470;2023-04-25T04:28:06;14.20;77.70
13721;DHT22;6932;51.438;5.470;2023-04-25T04:30:32;14.20;77.70
13721;DHT22;6932;51.438;5.470;2023-04-25T04:33:01;14.20;77.60
13721;DHT22;6932;51.438;5.470;2023-04-25T04:35:28;14.20;77.70
13721;DHT22;6932;51.438;5.470;2023-04-25T04:37:54;14.20;77.70
13721;DHT22;6932;51.438;5.470;2023-04-25T04:40:20;14.20;77.70
13721;DHT22;6932;51.438;5.470;2023-04-25T04:42:47;14.20;77.60
13721;DHT22;6932;51.438;5.470;2023-04-25T04:45:14;14.20;77.70
13721;DHT22;6932;51.438;5.470;2023-04-25T04:47:40;14.20;78.30
13721;DHT22;6932;51.438;5.470;2023-04-25T04:50:10;14.20;77.70
13721;DHT22;6932;51.438;5.470;2023-04-25T04:52:36;14.20;77.70
13721;DHT22;6932;51.438;5.470;2023-04-25T04:55:04;14.20;77.70
13721;DHT22;6932;51.438;5.470;2023-04-25T04:57:31;14.20;77.60
13721;DHT22;6932;51.438;5.470;2023-04-25T04:59:58;14.20;77.60
13721;DHT22;6932;51.438;5.470;2023-04-25T05:02:24;14.20;77.50
13721;DHT22;6932;51.438;5.470;2023-04-25T05:04:51;14.20;77.50
13721;DHT22;6932;51.438;5.470;2023-04-25T05:07:18;14.20;77.50
13721;DHT22;6932;51.438;5.470;2023-04-25T05:09:44;14.20;77.40
13721;DHT22;6932;51.438;5.470;2023-04-25T05:12:10;14.20;77.30
13721;DHT22;6932;51.438;5.470;2023-04-25T05:14:36;14.30;77.20
13721;DHT22;6932;51.438;5.470;2023-04-25T05:17:01;14.20;77.10
13721;DHT22;6932;51.438;5.470;2023-04-25T05:19:30;14.20;77.00
13721;DHT22;6932;51.438;5.470;2023-04-25T05:21:56;14.30;77.00
13721;DHT22;6932;51.438;5.470;2023-04-25T05:24:21;14.30;76.80
13721;DHT22;6932;51.438;5.470;2023-04-25T05:26:47;14.30;76.90
13721;DHT22;6932;51.438;5.470;2023-04-25T05:29:13;14.30;77.00
13721;DHT22;6932;51.438;5.470;2023-04-25T05:31:39;14.30;77.00
13721;DHT22;6932;51.438;5.470;2023-04-25T05:34:04;14.30;76.90
13721;DHT22;6932;51.438;5.470;2023-04-25T05:36:30;14.40;77.00
13721;DHT22;6932;51.438;5.470;2023-04-25T05:38:57;14.40;77.00
13721;DHT22;6932;51.438;5.470;2023-04-25T05:41:54;14.50;76.80
13721;DHT22;6932;51.438;5.470;2023-04-25T05:44:21;14.50;76.60
13721;DHT22;6932;51.438;5.470;2023-04-25T05:46:46;14.50;77.10
13721;DHT22;6932;51.438;5.470;2023-04-25T05:49:12;14.60;76.50
13721;DHT22;6932;51.438;5.470;2023-04-25T05:51:38;14.60;76.40
13721;DHT22;6932;51.438;5.470;2023-04-25T05:54:04;14.60;76.30
13721;DHT22;6932;51.438;5.470;2023-04-25T05:56:30;14.70;76.20
13721;DHT22;6932;51.438;5.470;2023-04-25T05:58:55;14.70;76.20
13721;DHT22;6932;51.438;5.470;2023-04-25T06:01:22;14.70;76.10
13721;DHT22;6932;51.438;5.470;2023-04-25T06:03:49;14.70;75.90
13721;DHT22;6932;51.438;5.470;2023-04-25T06:06:16;14.80;75.70
13721;DHT22;6932;51.438;5.470;2023-04-25T06:08:42;14.80;76.30
13721;DHT22;6932;51.438;5.470;2023-04-25T06:11:08;14.80;75.60
13721;DHT22;6932;51.438;5.470;2023-04-25T06:17:24;14.80;75.50
13721;DHT22;6932;51.438;5.470;2023-04-25T06:19:50;14.90;75.50
13721;DHT22;6932;51.438;5.470;2023-04-25T06:22:15;14.90;75.50
13721;DHT22;6932;51.438;5.470;2023-04-25T06:24:41;14.90;75.60
13721;DHT22;6932;51.438;5.470;2023-04-25T06:27:07;15.00;75.70
13721;DHT22;6932;51.438;5.470;2023-04-25T06:29:32;15.00;75.70
13721;DHT22;6932;51.438;5.470;2023-04-25T06:31:58;15.00;75.70
13721;DHT22;6932;51.438;5.470;2023-04-25T06:34:24;15.00;75.80
13721;DHT22;6932;51.438;5.470;2023-04-25T06:36:50;15.00;75.80
13721;DHT22;6932;51.438;5.470;2023-04-25T06:39:15;15.10;75.70
13721;DHT22;6932;51.438;5.470;2023-04-25T06:41:41;15.10;75.60
13721;DHT22;6932;51.438;5.470;2023-04-25T06:44:07;15.10;75.30
13721;DHT22;6932;51.438;5.470;2023-04-25T06:46:33;15.20;75.20
13721;DHT22;6932;51.438;5.470;2023-04-25T06:48:58;15.20;75.10
13721;DHT22;6932;51.438;5.470;2023-04-25T06:51:24;15.30;75.10
13721;DHT22;6932;51.438;5.470;2023-04-25T06:53:53;15.40;74.80
13721;DHT22;6932;51.438;5.470;2023-04-25T07:11:12;16.20;71.30
13721;DHT22;6932;51.438;5.470;2023-04-25T07:13:38;16.40;70.70
13721;DHT22;6932;51.438;5.470;2023-04-25T07:16:04;16.50;70.20
13721;DHT22;6932;51.438;5.470;2023-04-25T07:18:30;16.70;69.20
13721;DHT22;6932;51.438;5.470;2023-04-25T07:20:56;16.80;68.80
13721;DHT22;6932;51.438;5.470;2023-04-25T07:23:21;16.90;68.40
13721;DHT22;6932;51.438;5.470;2023-04-25T07:25:47;17.00;67.90
13721;DHT22;6932;51.438;5.470;2023-04-25T07:28:13;17.20;67.40
13721;DHT22;6932;51.438;5.470;2023-04-25T07:30:39;17.30;67.00
13721;DHT22;6932;51.438;5.470;2023-04-25T07:33:04;17.40;66.40
13721;DHT22;6932;51.438;5.470;2023-04-25T07:35:30;17.50;65.70
13721;DHT22;6932;51.438;5.470;2023-04-25T07:37:56;17.70;65.40
13721;DHT22;6932;51.438;5.470;2023-04-25T07:40:22;17.80;65.20
13721;DHT22;6932;51.438;5.470;2023-04-25T07:42:47;17.90;65.00
13721;DHT22;6932;51.438;5.470;2023-04-25T07:45:13;18.00;64.90
13721;DHT22;6932;51.438;5.470;2023-04-25T07:47:39;18.10;64.50
13721;DHT22;6932;51.438;5.470;2023-04-25T07:50:05;18.30;64.00
13721;DHT22;6932;51.438;5.470;2023-04-25T07:52:32;18.30;63.30
13721;DHT22;6932;51.438;5.470;2023-04-25T07:54:57;18.50;63.70
13721;DHT22;6932;51.438;5.470;2023-04-25T07:57:24;18.50;63.00
13721;DHT22;6932;51.438;5.470;2023-04-25T07:59:49;18.60;62.70
13721;DHT22;6932;51.438;5.470;2023-04-25T08:02:15;18.70;61.80
13721;DHT22;6932;51.438;5.470;2023-04-25T08:04:41;18.80;61.50
13721;DHT22;6932;51.438;5.470;2023-04-25T08:07:07;18.80;61.30
13721;DHT22;6932;51.438;5.470;2023-04-25T08:09:32;18.80;61.40
13721;DHT22;6932;51.438;5.470;2023-04-25T08:12:02;18.70;60.90
13721;DHT22;6932;51.438;5.470;2023-04-25T08:14:29;18.60;61.10
13721;DHT22;6932;51.438;5.470;2023-04-25T08:17:03;18.60;60.80
13721;DHT22;6932;51.438;5.470;2023-04-25T08:19:30;18.60;60.60
13721;DHT22;6932;51.438;5.470;2023-04-25T08:25:36;18.60;60.90
13721;DHT22;6932;51.438;5.470;2023-04-25T08:28:02;18.70;60.50
13721;DHT22;6932;51.438;5.470;2023-04-25T08:30:29;18.70;60.20
13721;DHT22;6932;51.438;5.470;2023-04-25T08:32:55;18.70;59.90
13721;DHT22;6932;51.438;5.470;2023-04-25T08:35:21;18.60;59.80
13721;DHT22;6932;51.438;5.470;2023-04-25T08:37:46;18.60;59.70
13721;DHT22;6932;51.438;5.470;2023-04-25T08:40:15;18.50;59.80
13721;DHT22;6932;51.438;5.470;2023-04-25T09:10:19;17.70;62.00
13721;DHT22;6932;51.438;5.470;2023-04-25T09:13:01;17.70;61.40
13721;DHT22;6932;51.438;5.470;2023-04-25T09:15:29;17.70;61.30
13721;DHT22;6932;51.438;5.470;2023-04-25T09:17:58;17.70;60.10
13721;DHT22;6932;51.438;5.470;2023-04-25T09:20:25;17.60;59.80
13721;DHT22;6932;51.438;5.470;2023-04-25T09:23:05;17.50;59.70
13721;DHT22;6932;51.438;5.470;2023-04-25T09:25:36;17.30;60.40
13721;DHT22;6932;51.438;5.470;2023-04-25T09:28:06;17.30;60.70
13721;DHT22;6932;51.438;5.470;2023-04-25T09:30:36;17.30;61.00
13721;DHT22;6932;51.438;5.470;2023-04-25T09:33:10;17.30;60.90
13721;DHT22;6932;51.438;5.470;2023-04-25T09:35:43;17.30;61.10
13721;DHT22;6932;51.438;5.470;2023-04-25T09:38:14;17.40;60.70
13721;DHT22;6932;51.438;5.470;2023-04-25T09:40:46;17.50;60.80
13721;DHT22;6932;51.438;5.470;2023-04-25T09:43:22;17.50;60.40
13721;DHT22;6932;51.438;5.470;2023-04-25T09:45:49;17.60;60.30
13721;DHT22;6932;51.438;5.470;2023-04-25T09:48:18;17.70;60.50
13721;DHT22;6932;51.438;5.470;2023-04-25T09:50:44;17.80;60.10
13721;DHT22;6932;51.438;5.470;2023-04-25T09:53:10;18.00;59.90
13721;DHT22;6932;51.438;5.470;2023-04-25T09:55:38;18.10;59.60
13721;DHT22;6932;51.438;5.470;2023-04-25T09:58:05;18.20;59.10
13721;DHT22;6932;51.438;5.470;2023-04-25T10:00:33;18.30;59.30
13721;DHT22;6932;51.438;5.470;2023-04-25T10:03:03;18.40;58.90
13721;DHT22;6932;51.438;5.470;2023-04-25T10:05:32;18.40;58.70
13721;DHT22;6932;51.438;5.470;2023-04-25T10:08:02;18.50;58.30
13721;DHT22;6932;51.438;5.470;2023-04-25T10:10:30;18.60;58.70
13721;DHT22;6932;51.438;5.470;2023-04-25T10:13:04;18.60;58.90
13721;DHT22;6932;51.438;5.470;2023-04-25T10:15:34;18.70;58.80
13721;DHT22;6932;51.438;5.470;2023-04-25T10:18:01;18.90;58.80
13721;DHT22;6932;51.438;5.470;2023-04-25T10:20:29;19.00;58.60
13721;DHT22;6932;51.438;5.470;2023-04-25T10:23:03;19.10;58.60
13721;DHT22;6932;51.438;5.470;2023-04-25T10:25:54;19.20;58.60
13721;DHT22;6932;51.438;5.470;2023-04-25T10:28:20;19.30;58.00
13721;DHT22;6932;51.438;5.470;2023-04-25T10:31:03;19.30;57.00
13721;DHT22;6932;51.438;5.470;2023-04-25T10:33:37;19.30;56.10
13721;DHT22;6932;51.438;5.470;2023-04-25T10:36:15;19.40;55.60
13721;DHT22;6932;51.438;5.470;2023-04-25T10:38:44;19.30;55.70
13721;DHT22;6932;51.438;5.470;2023-04-25T10:41:12;19.30;56.00
13721;DHT22;6932;51.438;5.470;2023-04-25T10:43:46;19.40;56.40
13721;DHT22;6932;51.438;5.470;2023-04-25T10:46:33;19.30;56.40
13721;DHT22;6932;51.438;5.470;2023-04-25T10:49:02;19.40;56.00
13721;DHT22;6932;51.438;5.470;2023-04-25T10:51:30;19.40;54.70
13721;DHT22;6932;51.438;5.470;2023-04-25T10:54:02;19.50;54.40
13721;DHT22;6932;51.438;5.470;2023-04-25T10:56:31;19.50;54.40
13721;DHT22;6932;51.438;5.470;2023-04-25T10:59:18;19.60;54.10
13721;DHT22;6932;51.438;5.470;2023-04-25T11:01:51;19.60;54.20
13721;DHT22;6932;51.438;5.470;2023-04-25T11:04:33;19.60;53.30
13721;DHT22;6932;51.438;5.470;2023-04-25T11:07:53;19.50;53.60
13721;DHT22;6932;51.438;5.470;2023-04-25T11:10:18;19.50;53.90
13721;DHT22;6932;51.438;5.470;2023-04-25T11:12:45;19.40;54.20
13721;DHT22;6932;51.438;5.470;2023-04-25T11:15:12;19.40;54.30
13721;DHT22;6932;51.438;5.470;2023-04-25T11:17:39;19.40;54.70
13721;DHT22;6932;51.438;5.470;2023-04-25T11:20:07;19.40;54.60
13721;DHT22;6932;51.438;5.470;2023-04-25T11:22:38;19.40;54.00
13721;DHT22;6932;51.438;5.470;2023-04-25T11:25:10;19.40;53.90
13721;DHT22;6932;51.438;5.470;2023-04-25T11:28:00;19.40;53.80
13721;DHT22;6932;51.438;5.470;2023-04-25T11:30:27;19.40;54.50
13721;DHT22;6932;51.438;5.470;2023-04-25T11:32:55;19.40;54.80
13721;DHT22;6932;51.438;5.470;2023-04-25T11:35:22;19.40;55.10
13721;DHT22;6932;51.438;5.470;2023-04-25T11:37:49;19.40;55.60
13721;DHT22;6932;51.438;5.470;2023-04-25T11:40:15;19.30;56.20
13721;DHT22;6932;51.438;5.470;2023-04-25T11:42:46;19.20;56.90
13721;DHT22;6932;51.438;5.470;2023-04-25T11:45:12;19.10;58.10
13721;DHT22;6932;51.438;5.470;2023-04-25T11:47:39;19.00;59.00
13721;DHT22;6932;51.438;5.470;2023-04-25T11:50:07;19.00;59.50
13721;DHT22;6932;51.438;5.470;2023-04-25T11:52:41;18.80;59.20
13721;DHT22;6932;51.438;5.470;2023-04-25T11:55:13;18.70;58.90
13721;DHT22;6932;51.438;5.470;2023-04-25T11:57:39;18.60;58.30
13721;DHT22;6932;51.438;5.470;2023-04-25T12:00:16;18.50;58.10
13721;DHT22;6932;51.438;5.470;2023-04-25T12:02:51;18.40;57.90
13721;DHT22;6932;51.438;5.470;2023-04-25T12:05:18;18.30;57.60
13721;DHT22;6932;51.438;5.470;2023-04-25T12:07:45;18.20;57.40
13721;DHT22;6932;51.438;5.470;2023-04-25T12:10:13;18.10;57.40
13721;DHT22;6932;51.438;5.470;2023-04-25T12:12:45;18.10;57.70
13721;DHT22;6932;51.438;5.470;2023-04-25T12:15:16;18.10;57.60
13721;DHT22;6932;51.438;5.470;2023-04-25T12:17:47;18.10;57.10
13721;DHT22;6932;51.438;5.470;2023-04-25T12:20:19;18.10;56.80
13721;DHT22;6932;51.438;5.470;2023-04-25T12:22:49;18.20;55.90
13721;DHT22;6932;51.438;5.470;2023-04-25T12:25:39;18.20;56.00
13721;DHT22;6932;51.438;5.470;2023-04-25T12:31:01;18.20;56.40
13721;DHT22;6932;51.438;5.470;2023-04-25T12:33:33;18.20;56.50
13721;DHT22;6932;51.438;5.470;2023-04-25T12:36:00;18.30;56.00
13721;DHT22;6932;51.438;5.470;2023-04-25T12:38:38;18.30;54.70
13721;DHT22;6932;51.438;5.470;2023-04-25T12:41:07;18.30;54.60
13721;DHT22;6932;51.438;5.470;2023-04-25T12:43:34;18.30;54.30
13721;DHT22;6932;51.438;5.470;2023-04-25T12:46:00;18.30;54.00
13721;DHT22;6932;51.438;5.470;2023-04-25T12:48:26;18.40;54.10
13721;DHT22;6932;51.438;5.470;2023-04-25T12:50:52;18.40;54.00
13721;DHT22;6932;51.438;5.470;2023-04-25T12:53:22;18.40;53.50
13721;DHT22;6932;51.438;5.470;2023-04-25T12:55:49;18.40;53.00
13721;DHT22;6932;51.438;5.470;2023-04-25T12:58:17;18.50;53.00
13721;DHT22;6932;51.438;5.470;2023-04-25T13:04:25;18.50;53.00
13721;DHT22;6932;51.438;5.470;2023-04-25T13:06:51;18.60;52.60
13721;DHT22;6932;51.438;5.470;2023-04-25T13:09:16;18.60;53.00
13721;DHT22;6932;51.438;5.470;2023-04-25T13:11:42;18.50;53.10
13721;DHT22;6932;51.438;5.470;2023-04-25T13:14:08;18.50;53.10
13721;DHT22;6932;51.438;5.470;2023-04-25T13:16:34;18.50;52.60
13721;DHT22;6932;51.438;5.470;2023-04-25T13:19:00;18.50;52.40
13721;DHT22;6932;51.438;5.470;2023-04-25T13:21:26;18.50;52.80
13721;DHT22;6932;51.438;5.470;2023-04-25T13:27:33;18.50;53.80
13721;DHT22;6932;51.438;5.470;2023-04-25T13:30:03;18.50;54.10
13721;DHT22;6932;51.438;5.470;2023-04-25T13:32:34;18.50;54.00
13721;DHT22;6932;51.438;5.470;2023-04-25T13:38:52;18.40;54.00
13721;DHT22;6932;51.438;5.470;2023-04-25T13:41:18;18.50;53.90
13721;DHT22;6932;51.438;5.470;2023-04-25T13:43:45;18.40;54.00
13721;DHT22;6932;51.438;5.470;2023-04-25T13:46:12;18.40;54.00
13721;DHT22;6932;51.438;5.470;2023-04-25T13:48:40;18.40;53.70
13721;DHT22;6932;51.438;5.470;2023-04-25T13:51:11;18.50;54.10
13721;DHT22;6932;51.438;5.470;2023-04-25T13:53:38;18.50;53.40
13721;DHT22;6932;51.438;5.470;2023-04-25T13:56:04;18.40;53.30
13721;DHT22;6932;51.438;5.470;2023-04-25T14:17:22;18.40;53.90
13721;DHT22;6932;51.438;5.470;2023-04-25T14:19:49;18.50;53.90
13721;DHT22;6932;51.438;5.470;2023-04-25T14:22:15;18.50;54.10
13721;DHT22;6932;51.438;5.470;2023-04-25T14:24:41;18.40;53.90
13721;DHT22;6932;51.438;5.470;2023-04-25T14:27:07;18.50;53.80
13721;DHT22;6932;51.438;5.470;2023-04-25T14:29:34;18.50;54.00
13721;DHT22;6932;51.438;5.470;2023-04-25T14:32:00;18.50;53.90
13721;DHT22;6932;51.438;5.470;2023-04-25T14:34:26;18.50;54.20
13721;DHT22;6932;51.438;5.470;2023-04-25T14:36:52;18.50;55.10
13721;DHT22;6932;51.438;5.470;2023-04-25T14:39:18;18.50;55.20
13721;DHT22;6932;51.438;5.470;2023-04-25T14:41:44;18.40;55.20
13721;DHT22;6932;51.438;5.470;2023-04-25T14:44:10;18.40;55.30
13721;DHT22;6932;51.438;5.470;2023-04-25T14:46:36;18.40;55.00
13721;DHT22;6932;51.438;5.470;2023-04-25T14:49:03;18.40;55.00
13721;DHT22;6932;51.438;5.470;2023-04-25T14:51:29;18.30;55.10
13721;DHT22;6932;51.438;5.470;2023-04-25T14:53:56;18.30;55.10
13721;DHT22;6932;51.438;5.470;2023-04-25T14:56:22;18.30;54.80
13721;DHT22;6932;51.438;5.470;2023-04-25T14:58:47;18.20;54.40
13721;DHT22;6932;51.438;5.470;2023-04-25T15:01:14;18.20;54.20
13721;DHT22;6932;51.438;5.470;2023-04-25T15:03:40;18.20;54.10
13721;DHT22;6932;51.438;5.470;2023-04-25T15:06:06;18.20;54.00
13721;DHT22;6932;51.438;5.470;2023-04-25T15:08:33;18.20;54.00
13721;DHT22;6932;51.438;5.470;2023-04-25T15:10:59;18.20;53.60
13721;DHT22;6932;51.438;5.470;2023-04-25T15:13:26;18.20;54.20
13721;DHT22;6932;51.438;5.470;2023-04-25T15:15:52;18.20;54.70
13721;DHT22;6932;51.438;5.470;2023-04-25T15:18:20;18.20;55.10
13721;DHT22;6932;51.438;5.470;2023-04-25T15:20:48;18.20;54.80
13721;DHT22;6932;51.438;5.470;2023-04-25T15:23:18;18.20;54.30
13721;DHT22;6932;51.438;5.470;2023-04-25T15:25:45;18.20;53.70
13721;DHT22;6932;51.438;5.470;2023-04-25T15:28:11;18.20;53.50
13721;DHT22;6932;51.438;5.470;2023-04-25T15:30:43;18.20;53.40
13721;DHT22;6932;51.438;5.470;2023-04-25T15:33:09;18.20;52.90
13721;DHT22;6932;51.438;5.470;2023-04-25T15:35:35;18.30;52.70
13721;DHT22;6932;51.438;5.470;2023-04-25T15:38:00;18.30;52.60
13721;DHT22;6932;51.438;5.470;2023-04-25T15:40:26;18.30;52.40
13721;DHT22;6932;51.438;5.470;2023-04-25T15:42:52;18.20;52.10
13721;DHT22;6932;51.438;5.470;2023-04-25T15:45:19;18.30;51.60
13721;DHT22;6932;51.438;5.470;2023-04-25T15:47:46;18.20;51.70
13721;DHT22;6932;51.438;5.470;2023-04-25T15:54:30;18.20;52.60
13721;DHT22;6932;51.438;5.470;2023-04-25T15:56:56;18.20;52.80
13721;DHT22;6932;51.438;5.470;2023-04-25T15:59:22;18.20;53.00
13721;DHT22;6932;51.438;5.470;2023-04-25T16:01:47;18.10;53.20
13721;DHT22;6932;51.438;5.470;2023-04-25T16:04:13;18.10;53.30
13721;DHT22;6932;51.438;5.470;2023-04-25T16:06:40;18.00;53.40
13721;DHT22;6932;51.438;5.470;2023-04-25T16:09:06;18.00;53.70
13721;DHT22;6932;51.438;5.470;2023-04-25T16:11:33;18.00;53.90
13721;DHT22;6932;51.438;5.470;2023-04-25T17:07:03;17.60;53.80
13721;DHT22;6932;51.438;5.470;2023-04-25T17:09:29;17.60;54.00
13721;DHT22;6932;51.438;5.470;2023-04-25T17:11:54;17.60;54.30
13721;DHT22;6932;51.438;5.470;2023-04-25T17:14:20;17.50;54.20
13721;DHT22;6932;51.438;5.470;2023-04-25T17:16:46;17.50;54.30
13721;DHT22;6932;51.438;5.470;2023-04-25T17:19:12;17.40;54.20
13721;DHT22;6932;51.438;5.470;2023-04-25T17:21:37;17.40;54.40
13721;DHT22;6932;51.438;5.470;2023-04-25T17:24:03;17.40;54.50
13721;DHT22;6932;51.438;5.470;2023-04-25T17:26:34;17.30;54.60
13721;DHT22;6932;51.438;5.470;2023-04-25T17:29:01;17.40;55.00
13721;DHT22;6932;51.438;5.470;2023-04-25T17:31:27;17.30;54.90
13721;DHT22;6932;51.438;5.470;2023-04-25T17:33:53;17.30;55.00
13721;DHT22;6932;51.438;5.470;2023-04-25T17:36:18;17.40;55.10
13721;DHT22;6932;51.438;5.470;2023-04-25T17:38:45;17.30;54.80
13721;DHT22;6932;51.438;5.470;2023-04-25T17:41:11;17.30;54.60
13721;DHT22;6932;51.438;5.470;2023-04-25T17:43:39;17.40;54.80
13721;DHT22;6932;51.438;5.470;2023-04-25T17:46:05;17.30;55.30
13721;DHT22;6932;51.438;5.470;2023-04-25T17:48:31;17.30;54.70
13721;DHT22;6932;51.438;5.470;2023-04-25T17:50:57;17.40;54.70
13721;DHT22;6932;51.438;5.470;2023-04-25T17:53:23;17.40;54.60
13721;DHT22;6932;51.438;5.470;2023-04-25T17:55:49;17.30;54.60
13721;DHT22;6932;51.438;5.470;2023-04-25T17:58:16;17.30;54.30
13721;DHT22;6932;51.438;5.470;2023-04-25T18:00:42;17.30;54.30
13721;DHT22;6932;51.438;5.470;2023-04-25T18:03:08;17.20;53.90
13721;DHT22;6932;51.438;5.470;2023-04-25T18:05:33;17.20;53.80
13721;DHT22;6932;51.438;5.470;2023-04-25T18:08:00;17.20;53.70
13721;DHT22;6932;51.438;5.470;2023-04-25T18:10:26;17.20;53.80
13721;DHT22;6932;51.438;5.470;2023-04-25T18:12:52;17.10;53.90
13721;DHT22;6932;51.438;5.470;2023-04-25T18:15:17;17.10;54.10